sensor_id;sensor_type;location;lat;lon;timestamp;temperature;humidity
83405;SHT30;73331;48.168;20.776;2023-11-19T00:00:04;1.62;78.70
83405;SHT30;73331;48.168;20.776;2023-11-19T00:01:37;1.50;79.06
83405;SHT30;73331;48.168;20.776;2023-11-19T00:03:07;1.40;78.99
83405;SHT30;73331;48.168;20.776;2023-11-19T00:04:38;1.39;79.03
83405;SHT30;73331;48.168;20.776;2023-11-19T00:06:11;1.56;78.83
83405;SHT30;73331;48.168;20.776;2023-11-19T00:07:42;1.42;78.81
83405;SHT30;73331;48.168;20.776;2023-11-19T00:09:13;1.26;79.75
83405;SHT30;73331;48.168;20.776;2023-11-19T00:10:43;1.09;80.37
83405;SHT30;73331;48.168;20.776;2023-11-19T00:12:14;1.11;80.20
83405;SHT30;73331;48.168;20.776;2023-11-19T00:13:45;1.08;80.21
83405;SHT30;73331;48.168;20.776;2023-11-19T00:15:16;1.19;79.94
83405;SHT30;73331;48.168;20.776;2023-11-19T00:16:48;1.02;80.54
83405;SHT30;73331;48.168;20.776;2023-11-19T00:18:21;1.08;80.33
83405;SHT30;73331;48.168;20.776;2023-11-19T00:19:52;1.13;80.19
83405;SHT30;73331;48.168;20.776;2023-11-19T00:21:23;1.49;79.12
83405;SHT30;73331;48.168;20.776;2023-11-19T00:22:53;1.23;79.52
83405;SHT30;73331;48.168;20.776;2023-11-19T00:24:24;1.18;79.96
83405;SHT30;73331;48.168;20.776;2023-11-19T00:25:55;1.13;79.97
83405;SHT30;73331;48.168;20.776;2023-11-19T00:27:25;1.01;80.74
83405;SHT30;73331;48.168;20.776;2023-11-19T00:28:56;0.99;80.85
83405;SHT30;73331;48.168;20.776;2023-11-19T00:30:27;1.05;80.81
83405;SHT30;73331;48.168;20.776;2023-11-19T00:31:58;1.23;80.25
83405;SHT30;73331;48.168;20.776;2023-11-19T00:33:29;1.08;80.17
83405;SHT30;73331;48.168;20.776;2023-11-19T00:35:00;1.05;80.64
83405;SHT30;73331;48.168;20.776;2023-11-19T00:36:30;1.05;80.50
83405;SHT30;73331;48.168;20.776;2023-11-19T00:38:01;1.05;80.93
83405;SHT30;73331;48.168;20.776;2023-11-19T00:39:33;1.06;80.69
83405;SHT30;73331;48.168;20.776;2023-11-19T00:41:04;1.15;80.36
83405;SHT30;73331;48.168;20.776;2023-11-19T00:42:35;1.16;80.17
83405;SHT30;73331;48.168;20.776;2023-11-19T00:44:05;0.98;81.28
83405;SHT30;73331;48.168;20.776;2023-11-19T00:45:36;0.92;80.96
83405;SHT30;73331;48.168;20.776;2023-11-19T00:47:07;1.31;80.82
83405;SHT30;73331;48.168;20.776;2023-11-19T00:48:37;1.74;77.36
83405;SHT30;73331;48.168;20.776;2023-11-19T00:50:08;1.66;77.56
83405;SHT30;73331;48.168;20.776;2023-11-19T00:51:42;1.56;78.05
83405;SHT30;73331;48.168;20.776;2023-11-19T00:53:13;1.26;78.79
83405;SHT30;73331;48.168;20.776;2023-11-19T00:54:45;1.28;79.93
83405;SHT30;73331;48.168;20.776;2023-11-19T00:56:15;1.18;79.60
83405;SHT30;73331;48.168;20.776;2023-11-19T00:57:47;1.09;79.88
83405;SHT30;73331;48.168;20.776;2023-11-19T00:59:19;1.08;79.92
83405;SHT30;73331;48.168;20.776;2023-11-19T01:00:49;1.01;80.55
83405;SHT30;73331;48.168;20.776;2023-11-19T01:02:20;1.05;80.75
83405;SHT30;73331;48.168;20.776;2023-11-19T01:03:51;0.88;80.99
83405;SHT30;73331;48.168;20.776;2023-11-19T01:05:22;0.84;81.59
83405;SHT30;73331;48.168;20.776;2023-11-19T01:06:52;0.93;81.25
83405;SHT30;73331;48.168;20.776;2023-11-19T01:08:24;0.99;80.63
83405;SHT30;73331;48.168;20.776;2023-11-19T01:09:55;1.08;80.74
83405;SHT30;73331;48.168;20.776;2023-11-19T01:11:26;1.22;79.91
83405;SHT30;73331;48.168;20.776;2023-11-19T01:12:57;0.96;80.45
83405;SHT30;73331;48.168;20.776;2023-11-19T01:14:28;0.96;80.75
83405;SHT30;73331;48.168;20.776;2023-11-19T01:15:59;1.09;80.40
83405;SHT30;73331;48.168;20.776;2023-11-19T01:17:29;1.02;80.20
83405;SHT30;73331;48.168;20.776;2023-11-19T01:19:02;1.09;79.71
83405;SHT30;73331;48.168;20.776;2023-11-19T01:20:35;1.03;79.92
83405;SHT30;73331;48.168;20.776;2023-11-19T01:22:05;1.11;79.78
83405;SHT30;73331;48.168;20.776;2023-11-19T01:23:36;0.93;80.71
83405;SHT30;73331;48.168;20.776;2023-11-19T01:25:07;0.91;80.88
83405;SHT30;73331;48.168;20.776;2023-11-19T01:26:38;0.89;80.96
83405;SHT30;73331;48.168;20.776;2023-11-19T01:28:09;0.72;81.36
83405;SHT30;73331;48.168;20.776;2023-11-19T01:29:39;0.78;81.65
83405;SHT30;73331;48.168;20.776;2023-11-19T01:31:11;0.74;81.53
83405;SHT30;73331;48.168;20.776;2023-11-19T01:32:43;0.88;81.51
83405;SHT30;73331;48.168;20.776;2023-11-19T01:34:14;0.93;80.83
83405;SHT30;73331;48.168;20.776;2023-11-19T01:35:44;0.85;81.32
83405;SHT30;73331;48.168;20.776;2023-11-19T01:37:15;0.89;81.32
83405;SHT30;73331;48.168;20.776;2023-11-19T01:38:46;0.85;81.54
83405;SHT30;73331;48.168;20.776;2023-11-19T01:40:20;0.75;81.32
83405;SHT30;73331;48.168;20.776;2023-11-19T01:41:51;0.78;81.60
83405;SHT30;73331;48.168;20.776;2023-11-19T01:43:35;0.82;81.34
83405;SHT30;73331;48.168;20.776;2023-11-19T01:45:07;0.75;81.63
83405;SHT30;73331;48.168;20.776;2023-11-19T01:46:44;0.78;81.91
83405;SHT30;73331;48.168;20.776;2023-11-19T01:48:15;0.71;82.33
83405;SHT30;73331;48.168;20.776;2023-11-19T01:49:46;0.71;82.23
83405;SHT30;73331;48.168;20.776;2023-11-19T01:51:17;0.85;81.83
83405;SHT30;73331;48.168;20.776;2023-11-19T01:52:48;0.87;81.34
83405;SHT30;73331;48.168;20.776;2023-11-19T01:54:19;0.89;80.88
83405;SHT30;73331;48.168;20.776;2023-11-19T01:55:50;0.88;81.15
83405;SHT30;73331;48.168;20.776;2023-11-19T01:57:23;1.28;80.09
83405;SHT30;73331;48.168;20.776;2023-11-19T01:58:55;1.38;79.17
83405;SHT30;73331;48.168;20.776;2023-11-19T02:00:26;1.36;79.26
83405;SHT30;73331;48.168;20.776;2023-11-19T02:01:56;1.29;79.73
83405;SHT30;73331;48.168;20.776;2023-11-19T02:03:28;1.23;79.78
83405;SHT30;73331;48.168;20.776;2023-11-19T02:04:59;1.02;80.64
83405;SHT30;73331;48.168;20.776;2023-11-19T02:06:32;0.99;80.85
83405;SHT30;73331;48.168;20.776;2023-11-19T02:08:03;0.95;81.25
83405;SHT30;73331;48.168;20.776;2023-11-19T02:09:34;0.85;81.74
83405;SHT30;73331;48.168;20.776;2023-11-19T02:11:05;0.74;81.90
83405;SHT30;73331;48.168;20.776;2023-11-19T02:12:37;0.78;81.90
83405;SHT30;73331;48.168;20.776;2023-11-19T02:14:08;0.75;81.72
83405;SHT30;73331;48.168;20.776;2023-11-19T02:15:38;0.71;82.31
83405;SHT30;73331;48.168;20.776;2023-11-19T02:17:28;0.71;81.98
83405;SHT30;73331;48.168;20.776;2023-11-19T02:18:58;0.72;81.87
83405;SHT30;73331;48.168;20.776;2023-11-19T02:20:29;0.71;81.97
83405;SHT30;73331;48.168;20.776;2023-11-19T02:22:00;0.75;81.50
83405;SHT30;73331;48.168;20.776;2023-11-19T02:23:31;0.65;81.90
83405;SHT30;73331;48.168;20.776;2023-11-19T02:25:06;0.67;82.35
83405;SHT30;73331;48.168;20.776;2023-11-19T02:27:07;0.80;81.35
83405;SHT30;73331;48.168;20.776;2023-11-19T02:28:41;0.71;81.72
83405;SHT30;73331;48.168;20.776;2023-11-19T02:30:12;0.70;81.59
83405;SHT30;73331;48.168;20.776;2023-11-19T02:31:45;0.80;81.54
83405;SHT30;73331;48.168;20.776;2023-11-19T02:33:17;0.92;80.78
83405;SHT30;73331;48.168;20.776;2023-11-19T02:34:48;0.85;80.99
83405;SHT30;73331;48.168;20.776;2023-11-19T02:36:18;0.78;81.44
83405;SHT30;73331;48.168;20.776;2023-11-19T02:37:49;0.85;81.31
83405;SHT30;73331;48.168;20.776;2023-11-19T02:39:20;0.84;81.25
83405;SHT30;73331;48.168;20.776;2023-11-19T02:40:52;0.78;81.44
83405;SHT30;73331;48.168;20.776;2023-11-19T02:42:22;0.65;82.34
83405;SHT30;73331;48.168;20.776;2023-11-19T02:43:53;0.68;82.45
83405;SHT30;73331;48.168;20.776;2023-11-19T02:45:24;0.68;82.51
83405;SHT30;73331;48.168;20.776;2023-11-19T02:46:55;0.57;82.61
83405;SHT30;73331;48.168;20.776;2023-11-19T02:48:29;0.67;82.44
83405;SHT30;73331;48.168;20.776;2023-11-19T02:50:01;0.71;82.18
83405;SHT30;73331;48.168;20.776;2023-11-19T02:51:32;0.65;82.48
83405;SHT30;73331;48.168;20.776;2023-11-19T02:53:03;0.75;82.87
83405;SHT30;73331;48.168;20.776;2023-11-19T02:54:33;0.65;83.95
83405;SHT30;73331;48.168;20.776;2023-11-19T02:56:06;0.53;83.73
83405;SHT30;73331;48.168;20.776;2023-11-19T02:57:45;0.57;83.54
83405;SHT30;73331;48.168;20.776;2023-11-19T02:59:18;0.64;83.19
83405;SHT30;73331;48.168;20.776;2023-11-19T03:00:57;0.65;83.02
83405;SHT30;73331;48.168;20.776;2023-11-19T03:02:29;0.72;83.26
83405;SHT30;73331;48.168;20.776;2023-11-19T03:04:04;0.84;82.32
83405;SHT30;73331;48.168;20.776;2023-11-19T03:05:35;1.06;81.67
83405;SHT30;73331;48.168;20.776;2023-11-19T03:07:06;1.70;79.58
83405;SHT30;73331;48.168;20.776;2023-11-19T03:08:37;1.71;79.16
83405;SHT30;73331;48.168;20.776;2023-11-19T03:10:08;1.60;79.94
83405;SHT30;73331;48.168;20.776;2023-11-19T03:11:39;1.44;80.49
83405;SHT30;73331;48.168;20.776;2023-11-19T03:13:12;1.03;81.75
83405;SHT30;73331;48.168;20.776;2023-11-19T03:14:47;1.13;82.43
83405;SHT30;73331;48.168;20.776;2023-11-19T03:16:18;0.70;83.06
83405;SHT30;73331;48.168;20.776;2023-11-19T03:17:49;0.44;84.33
83405;SHT30;73331;48.168;20.776;2023-11-19T03:19:20;0.31;85.58
83405;SHT30;73331;48.168;20.776;2023-11-19T03:20:50;0.47;84.75
83405;SHT30;73331;48.168;20.776;2023-11-19T03:22:22;0.71;84.20
83405;SHT30;73331;48.168;20.776;2023-11-19T03:23:53;0.81;83.51
83405;SHT30;73331;48.168;20.776;2023-11-19T03:25:27;0.60;83.58
83405;SHT30;73331;48.168;20.776;2023-11-19T03:27:03;0.36;84.62
83405;SHT30;73331;48.168;20.776;2023-11-19T03:28:34;0.23;84.98
83405;SHT30;73331;48.168;20.776;2023-11-19T03:30:06;0.23;85.01
83405;SHT30;73331;48.168;20.776;2023-11-19T03:31:41;0.11;85.11
83405;SHT30;73331;48.168;20.776;2023-11-19T03:33:12;0.11;85.33
83405;SHT30;73331;48.168;20.776;2023-11-19T03:34:43;0.23;85.29
83405;SHT30;73331;48.168;20.776;2023-11-19T03:36:14;0.16;85.25
83405;SHT30;73331;48.168;20.776;2023-11-19T03:37:44;0.28;84.87
83405;SHT30;73331;48.168;20.776;2023-11-19T03:39:15;0.58;84.23
83405;SHT30;73331;48.168;20.776;2023-11-19T03:40:46;0.56;83.36
83405;SHT30;73331;48.168;20.776;2023-11-19T03:42:16;0.37;84.29
83405;SHT30;73331;48.168;20.776;2023-11-19T03:43:49;0.27;85.25
83405;SHT30;73331;48.168;20.776;2023-11-19T03:45:19;0.20;85.51
83405;SHT30;73331;48.168;20.776;2023-11-19T03:46:50;0.14;85.78
83405;SHT30;73331;48.168;20.776;2023-11-19T03:48:21;0.20;85.39
83405;SHT30;73331;48.168;20.776;2023-11-19T03:49:52;0.30;85.33
83405;SHT30;73331;48.168;20.776;2023-11-19T03:51:22;0.30;85.28
83405;SHT30;73331;48.168;20.776;2023-11-19T03:52:53;0.27;85.83
83405;SHT30;73331;48.168;20.776;2023-11-19T03:54:24;0.20;86.07
83405;SHT30;73331;48.168;20.776;2023-11-19T03:55:54;0.09;86.84
83405;SHT30;73331;48.168;20.776;2023-11-19T03:57:27;0.02;87.41
83405;SHT30;73331;48.168;20.776;2023-11-19T03:58:58;-0.08;87.35
83405;SHT30;73331;48.168;20.776;2023-11-19T04:00:29;-0.15;87.60
83405;SHT30;73331;48.168;20.776;2023-11-19T04:02:00;0.03;86.76
83405;SHT30;73331;48.168;20.776;2023-11-19T04:03:31;0.09;86.10
83405;SHT30;73331;48.168;20.776;2023-11-19T04:05:02;0.36;85.27
83405;SHT30;73331;48.168;20.776;2023-11-19T04:06:34;1.22;81.57
83405;SHT30;73331;48.168;20.776;2023-11-19T04:08:05;1.42;79.67
83405;SHT30;73331;48.168;20.776;2023-11-19T04:09:35;0.74;81.09
83405;SHT30;73331;48.168;20.776;2023-11-19T04:11:07;0.46;82.88
83405;SHT30;73331;48.168;20.776;2023-11-19T04:12:39;0.28;82.62
83405;SHT30;73331;48.168;20.776;2023-11-19T04:14:09;0.06;84.79
83405;SHT30;73331;48.168;20.776;2023-11-19T04:15:40;-0.24;85.59
83405;SHT30;73331;48.168;20.776;2023-11-19T04:17:11;-0.27;86.38
83405;SHT30;73331;48.168;20.776;2023-11-19T04:18:41;-0.04;86.69
83405;SHT30;73331;48.168;20.776;2023-11-19T04:20:12;-0.37;86.49
83405;SHT30;73331;48.168;20.776;2023-11-19T04:21:43;-0.57;87.25
83405;SHT30;73331;48.168;20.776;2023-11-19T04:23:14;-0.68;87.86
83405;SHT30;73331;48.168;20.776;2023-11-19T04:24:45;-0.68;87.98
83405;SHT30;73331;48.168;20.776;2023-11-19T04:26:16;-0.66;87.91
83405;SHT30;73331;48.168;20.776;2023-11-19T04:27:47;-0.72;88.03
83405;SHT30;73331;48.168;20.776;2023-11-19T04:29:18;-0.68;88.12
83405;SHT30;73331;48.168;20.776;2023-11-19T04:30:49;-0.49;87.96
83405;SHT30;73331;48.168;20.776;2023-11-19T04:32:20;-0.39;86.80
83405;SHT30;73331;48.168;20.776;2023-11-19T04:33:51;-0.58;87.29
83405;SHT30;73331;48.168;20.776;2023-11-19T04:35:22;-0.65;88.12
83405;SHT30;73331;48.168;20.776;2023-11-19T04:36:53;-0.69;88.52
83405;SHT30;73331;48.168;20.776;2023-11-19T04:38:24;-0.57;88.46
83405;SHT30;73331;48.168;20.776;2023-11-19T04:39:57;-0.62;88.37
83405;SHT30;73331;48.168;20.776;2023-11-19T04:41:27;-0.72;88.77
83405;SHT30;73331;48.168;20.776;2023-11-19T04:42:58;-0.59;88.80
83405;SHT30;73331;48.168;20.776;2023-11-19T04:44:29;-0.72;88.55
83405;SHT30;73331;48.168;20.776;2023-11-19T04:45:59;-0.86;89.20
83405;SHT30;73331;48.168;20.776;2023-11-19T04:47:30;-0.73;89.44
83405;SHT30;73331;48.168;20.776;2023-11-19T04:49:01;-0.82;89.49
83405;SHT30;73331;48.168;20.776;2023-11-19T04:50:31;-0.76;89.01
83405;SHT30;73331;48.168;20.776;2023-11-19T04:52:02;-0.61;88.93
83405;SHT30;73331;48.168;20.776;2023-11-19T04:53:33;-0.79;88.73
83405;SHT30;73331;48.168;20.776;2023-11-19T04:55:04;-0.78;89.28
83405;SHT30;73331;48.168;20.776;2023-11-19T04:56:35;-0.78;89.08
83405;SHT30;73331;48.168;20.776;2023-11-19T04:58:10;-0.72;88.55
83405;SHT30;73331;48.168;20.776;2023-11-19T04:59:40;-0.86;89.07
83405;SHT30;73331;48.168;20.776;2023-11-19T05:01:14;-0.90;89.16
83405;SHT30;73331;48.168;20.776;2023-11-19T05:02:48;-1.00;89.29
83405;SHT30;73331;48.168;20.776;2023-11-19T05:04:19;-0.80;88.77
83405;SHT30;73331;48.168;20.776;2023-11-19T05:05:49;-0.89;88.73
83405;SHT30;73331;48.168;20.776;2023-11-19T05:07:20;-0.90;88.90
83405;SHT30;73331;48.168;20.776;2023-11-19T05:08:51;-0.89;89.22
83405;SHT30;73331;48.168;20.776;2023-11-19T05:10:21;-0.86;89.37
83405;SHT30;73331;48.168;20.776;2023-11-19T05:11:52;-0.92;89.59
83405;SHT30;73331;48.168;20.776;2023-11-19T05:13:23;-0.86;89.45
83405;SHT30;73331;48.168;20.776;2023-11-19T05:14:53;-0.89;89.46
83405;SHT30;73331;48.168;20.776;2023-11-19T05:16:24;-0.89;89.55
83405;SHT30;73331;48.168;20.776;2023-11-19T05:17:55;-0.86;89.55
83405;SHT30;73331;48.168;20.776;2023-11-19T05:19:25;-0.72;89.55
83405;SHT30;73331;48.168;20.776;2023-11-19T05:20:56;-0.64;89.16
83405;SHT30;73331;48.168;20.776;2023-11-19T05:22:26;-0.73;88.87
83405;SHT30;73331;48.168;20.776;2023-11-19T05:23:57;-0.78;89.30
83405;SHT30;73331;48.168;20.776;2023-11-19T05:25:28;-0.78;89.31
83405;SHT30;73331;48.168;20.776;2023-11-19T05:26:58;-0.83;89.30
83405;SHT30;73331;48.168;20.776;2023-11-19T05:28:29;-0.69;89.56
83405;SHT30;73331;48.168;20.776;2023-11-19T05:30:00;-0.73;89.16
83405;SHT30;73331;48.168;20.776;2023-11-19T05:31:30;-0.86;89.46
83405;SHT30;73331;48.168;20.776;2023-11-19T05:33:01;-0.76;89.80
83405;SHT30;73331;48.168;20.776;2023-11-19T05:34:32;-0.85;89.36
83405;SHT30;73331;48.168;20.776;2023-11-19T05:36:03;-0.82;89.39
83405;SHT30;73331;48.168;20.776;2023-11-19T05:37:34;-0.19;87.58
83405;SHT30;73331;48.168;20.776;2023-11-19T05:39:05;-0.32;86.57
83405;SHT30;73331;48.168;20.776;2023-11-19T05:40:36;-0.47;86.81
83405;SHT30;73331;48.168;20.776;2023-11-19T05:42:09;-0.62;87.66
83405;SHT30;73331;48.168;20.776;2023-11-19T05:43:40;-0.38;87.76
83405;SHT30;73331;48.168;20.776;2023-11-19T05:45:12;-0.18;86.63
83405;SHT30;73331;48.168;20.776;2023-11-19T05:46:42;0.41;84.11
83405;SHT30;73331;48.168;20.776;2023-11-19T05:48:14;0.13;83.98
83405;SHT30;73331;48.168;20.776;2023-11-19T05:49:45;-0.24;85.68
83405;SHT30;73331;48.168;20.776;2023-11-19T05:51:15;-0.38;87.06
83405;SHT30;73331;48.168;20.776;2023-11-19T05:52:46;-0.57;87.95
83405;SHT30;73331;48.168;20.776;2023-11-19T05:54:17;-0.66;88.54
83405;SHT30;73331;48.168;20.776;2023-11-19T05:55:49;-0.66;88.63
83405;SHT30;73331;48.168;20.776;2023-11-19T05:57:25;-0.59;88.81
83405;SHT30;73331;48.168;20.776;2023-11-19T05:58:55;-0.65;88.81
83405;SHT30;73331;48.168;20.776;2023-11-19T06:00:26;-0.61;88.76
83405;SHT30;73331;48.168;20.776;2023-11-19T06:01:57;-0.64;88.94
83405;SHT30;73331;48.168;20.776;2023-11-19T06:03:28;-0.38;88.45
83405;SHT30;73331;48.168;20.776;2023-11-19T06:04:59;0.10;87.19
83405;SHT30;73331;48.168;20.776;2023-11-19T06:06:29;-0.14;86.36
83405;SHT30;73331;48.168;20.776;2023-11-19T06:08:00;-0.28;87.26
83405;SHT30;73331;48.168;20.776;2023-11-19T06:09:31;-0.32;87.56
83405;SHT30;73331;48.168;20.776;2023-11-19T06:11:04;-0.25;87.83
83405;SHT30;73331;48.168;20.776;2023-11-19T06:12:35;-0.31;87.38
83405;SHT30;73331;48.168;20.776;2023-11-19T06:14:08;-0.29;87.73
83405;SHT30;73331;48.168;20.776;2023-11-19T06:15:38;-0.39;87.80
83405;SHT30;73331;48.168;20.776;2023-11-19T06:17:09;0.06;86.92
83405;SHT30;73331;48.168;20.776;2023-11-19T06:18:41;0.13;86.19
83405;SHT30;73331;48.168;20.776;2023-11-19T06:20:14;-0.15;86.47
83405;SHT30;73331;48.168;20.776;2023-11-19T06:21:44;-0.08;87.10
83405;SHT30;73331;48.168;20.776;2023-11-19T06:23:15;-0.27;86.99
83405;SHT30;73331;48.168;20.776;2023-11-19T06:24:46;-0.29;87.46
83405;SHT30;73331;48.168;20.776;2023-11-19T06:26:16;-0.19;87.48
83405;SHT30;73331;48.168;20.776;2023-11-19T06:27:47;0.13;86.84
83405;SHT30;73331;48.168;20.776;2023-11-19T06:29:18;0.23;85.37
83405;SHT30;73331;48.168;20.776;2023-11-19T06:30:48;0.26;85.08
83405;SHT30;73331;48.168;20.776;2023-11-19T06:32:19;0.28;84.93
83405;SHT30;73331;48.168;20.776;2023-11-19T06:33:50;0.18;85.10
83405;SHT30;73331;48.168;20.776;2023-11-19T06:35:21;0.23;85.48
83405;SHT30;73331;48.168;20.776;2023-11-19T06:36:51;0.17;85.32
83405;SHT30;73331;48.168;20.776;2023-11-19T06:38:23;0.09;86.02
83405;SHT30;73331;48.168;20.776;2023-11-19T06:39:53;-0.01;86.24
83405;SHT30;73331;48.168;20.776;2023-11-19T06:41:24;0.00;86.65
83405;SHT30;73331;48.168;20.776;2023-11-19T06:42:55;0.40;85.73
83405;SHT30;73331;48.168;20.776;2023-11-19T06:44:26;0.34;84.76
83405;SHT30;73331;48.168;20.776;2023-11-19T06:45:57;0.62;84.72
83405;SHT30;73331;48.168;20.776;2023-11-19T06:47:28;0.78;83.11
83405;SHT30;73331;48.168;20.776;2023-11-19T06:48:58;0.46;83.98
83405;SHT30;73331;48.168;20.776;2023-11-19T06:50:31;0.28;85.73
83405;SHT30;73331;48.168;20.776;2023-11-19T06:52:01;0.60;85.00
83405;SHT30;73331;48.168;20.776;2023-11-19T06:53:32;0.41;84.29
83405;SHT30;73331;48.168;20.776;2023-11-19T06:55:03;0.47;85.01
83405;SHT30;73331;48.168;20.776;2023-11-19T06:56:34;0.64;83.88
83405;SHT30;73331;48.168;20.776;2023-11-19T06:58:05;0.64;84.10
83405;SHT30;73331;48.168;20.776;2023-11-19T06:59:36;1.12;83.61
83405;SHT30;73331;48.168;20.776;2023-11-19T07:01:06;1.54;81.12
83405;SHT30;73331;48.168;20.776;2023-11-19T07:02:38;2.00;79.45
83405;SHT30;73331;48.168;20.776;2023-11-19T07:04:12;1.66;79.33
83405;SHT30;73331;48.168;20.776;2023-11-19T07:05:43;1.22;80.22
83405;SHT30;73331;48.168;20.776;2023-11-19T07:07:14;1.21;81.60
83405;SHT30;73331;48.168;20.776;2023-11-19T07:08:45;0.61;83.55
83405;SHT30;73331;48.168;20.776;2023-11-19T07:10:16;0.36;85.06
83405;SHT30;73331;48.168;20.776;2023-11-19T07:11:47;0.33;85.62
83405;SHT30;73331;48.168;20.776;2023-11-19T07:13:18;0.50;85.20
83405;SHT30;73331;48.168;20.776;2023-11-19T07:14:49;0.70;84.15
83405;SHT30;73331;48.168;20.776;2023-11-19T07:16:20;0.87;83.72
83405;SHT30;73331;48.168;20.776;2023-11-19T07:17:52;0.78;83.99
83405;SHT30;73331;48.168;20.776;2023-11-19T07:19:24;0.67;83.57
83405;SHT30;73331;48.168;20.776;2023-11-19T07:20:55;0.56;84.75
83405;SHT30;73331;48.168;20.776;2023-11-19T07:22:26;0.65;84.96
83405;SHT30;73331;48.168;20.776;2023-11-19T07:23:56;0.64;84.81
83405;SHT30;73331;48.168;20.776;2023-11-19T07:25:27;0.53;85.60
83405;SHT30;73331;48.168;20.776;2023-11-19T07:26:57;0.43;86.26
83405;SHT30;73331;48.168;20.776;2023-11-19T07:28:28;0.68;85.73
83405;SHT30;73331;48.168;20.776;2023-11-19T07:29:59;0.98;83.86
83405;SHT30;73331;48.168;20.776;2023-11-19T07:31:29;0.92;84.21
83405;SHT30;73331;48.168;20.776;2023-11-19T07:33:00;1.02;83.91
83405;SHT30;73331;48.168;20.776;2023-11-19T07:34:31;0.67;85.30
83405;SHT30;73331;48.168;20.776;2023-11-19T07:36:01;0.70;85.50
83405;SHT30;73331;48.168;20.776;2023-11-19T07:37:32;1.43;82.88
83405;SHT30;73331;48.168;20.776;2023-11-19T07:39:03;1.70;80.72
83405;SHT30;73331;48.168;20.776;2023-11-19T07:40:35;1.40;81.14
83405;SHT30;73331;48.168;20.776;2023-11-19T07:42:06;0.99;83.48
83405;SHT30;73331;48.168;20.776;2023-11-19T07:43:36;0.99;84.20
83405;SHT30;73331;48.168;20.776;2023-11-19T07:45:07;1.76;81.04
83405;SHT30;73331;48.168;20.776;2023-11-19T07:46:38;1.86;79.44
83405;SHT30;73331;48.168;20.776;2023-11-19T07:48:09;1.35;81.75
83405;SHT30;73331;48.168;20.776;2023-11-19T07:49:40;1.46;81.43
83405;SHT30;73331;48.168;20.776;2023-11-19T07:51:11;2.08;79.80
83405;SHT30;73331;48.168;20.776;2023-11-19T07:52:42;2.48;77.97
83405;SHT30;73331;48.168;20.776;2023-11-19T07:54:13;3.00;75.31
83405;SHT30;73331;48.168;20.776;2023-11-19T07:55:44;2.48;76.73
83405;SHT30;73331;48.168;20.776;2023-11-19T07:57:15;1.96;79.30
83405;SHT30;73331;48.168;20.776;2023-11-19T07:58:45;1.49;81.95
83405;SHT30;73331;48.168;20.776;2023-11-19T08:00:16;1.22;83.16
83405;SHT30;73331;48.168;20.776;2023-11-19T08:01:47;0.93;84.21
83405;SHT30;73331;48.168;20.776;2023-11-19T08:03:18;0.89;84.43
83405;SHT30;73331;48.168;20.776;2023-11-19T08:04:50;1.05;84.39
83405;SHT30;73331;48.168;20.776;2023-11-19T08:06:22;1.05;84.22
83405;SHT30;73331;48.168;20.776;2023-11-19T08:07:53;0.92;85.00
83405;SHT30;73331;48.168;20.776;2023-11-19T08:09:23;0.78;85.78
83405;SHT30;73331;48.168;20.776;2023-11-19T08:10:54;0.89;86.13
83405;SHT30;73331;48.168;20.776;2023-11-19T08:12:26;0.99;85.75
83405;SHT30;73331;48.168;20.776;2023-11-19T08:13:57;1.02;85.30
83405;SHT30;73331;48.168;20.776;2023-11-19T08:15:28;0.98;85.39
83405;SHT30;73331;48.168;20.776;2023-11-19T08:16:58;0.91;86.39
83405;SHT30;73331;48.168;20.776;2023-11-19T08:18:29;0.99;85.71
83405;SHT30;73331;48.168;20.776;2023-11-19T08:19:59;0.92;85.69
83405;SHT30;73331;48.168;20.776;2023-11-19T08:21:30;1.06;85.58
83405;SHT30;73331;48.168;20.776;2023-11-19T08:23:02;1.11;84.80
83405;SHT30;73331;48.168;20.776;2023-11-19T08:24:34;1.16;84.05
83405;SHT30;73331;48.168;20.776;2023-11-19T08:26:05;1.12;85.16
83405;SHT30;73331;48.168;20.776;2023-11-19T08:27:36;1.33;83.76
83405;SHT30;73331;48.168;20.776;2023-11-19T08:29:07;1.47;83.04
83405;SHT30;73331;48.168;20.776;2023-11-19T08:30:38;1.40;82.61
83405;SHT30;73331;48.168;20.776;2023-11-19T08:32:08;1.53;82.96
83405;SHT30;73331;48.168;20.776;2023-11-19T08:33:39;1.73;81.71
83405;SHT30;73331;48.168;20.776;2023-11-19T08:35:10;1.43;83.60
83405;SHT30;73331;48.168;20.776;2023-11-19T08:36:40;1.39;84.46
83405;SHT30;73331;48.168;20.776;2023-11-19T08:38:11;1.40;84.48
83405;SHT30;73331;48.168;20.776;2023-11-19T08:39:41;1.26;84.38
83405;SHT30;73331;48.168;20.776;2023-11-19T08:41:13;1.38;85.12
83405;SHT30;73331;48.168;20.776;2023-11-19T08:42:43;1.74;82.46
83405;SHT30;73331;48.168;20.776;2023-11-19T08:44:14;1.74;82.49
83405;SHT30;73331;48.168;20.776;2023-11-19T08:45:45;1.87;82.23
83405;SHT30;73331;48.168;20.776;2023-11-19T08:47:16;1.50;83.37
83405;SHT30;73331;48.168;20.776;2023-11-19T08:48:48;1.54;83.94
83405;SHT30;73331;48.168;20.776;2023-11-19T08:50:18;1.60;83.52
83405;SHT30;73331;48.168;20.776;2023-11-19T08:51:49;1.74;82.94
83405;SHT30;73331;48.168;20.776;2023-11-19T08:53:20;2.46;80.81
83405;SHT30;73331;48.168;20.776;2023-11-19T08:54:51;2.79;77.41
83405;SHT30;73331;48.168;20.776;2023-11-19T08:56:21;3.06;77.81
83405;SHT30;73331;48.168;20.776;2023-11-19T08:57:52;2.73;78.25
83405;SHT30;73331;48.168;20.776;2023-11-19T08:59:23;2.32;79.87
83405;SHT30;73331;48.168;20.776;2023-11-19T09:00:53;1.93;81.56
83405;SHT30;73331;48.168;20.776;2023-11-19T09:02:24;1.80;82.96
83405;SHT30;73331;48.168;20.776;2023-11-19T09:03:55;1.66;82.77
83405;SHT30;73331;48.168;20.776;2023-11-19T09:05:26;1.52;84.45
83405;SHT30;73331;48.168;20.776;2023-11-19T09:06:59;1.47;84.85
83405;SHT30;73331;48.168;20.776;2023-11-19T09:08:30;1.47;84.66
83405;SHT30;73331;48.168;20.776;2023-11-19T09:10:00;1.39;84.82
83405;SHT30;73331;48.168;20.776;2023-11-19T09:11:32;1.32;84.76
83405;SHT30;73331;48.168;20.776;2023-11-19T09:13:02;1.42;84.11
83405;SHT30;73331;48.168;20.776;2023-11-19T09:14:34;1.46;83.75
83405;SHT30;73331;48.168;20.776;2023-11-19T09:16:05;1.70;83.23
83405;SHT30;73331;48.168;20.776;2023-11-19T09:17:35;1.87;82.64
83405;SHT30;73331;48.168;20.776;2023-11-19T09:19:06;1.88;82.03
83405;SHT30;73331;48.168;20.776;2023-11-19T09:20:37;1.87;82.11
83405;SHT30;73331;48.168;20.776;2023-11-19T09:22:09;1.96;81.99
83405;SHT30;73331;48.168;20.776;2023-11-19T09:23:39;2.11;81.46
83405;SHT30;73331;48.168;20.776;2023-11-19T09:25:10;2.27;81.34
83405;SHT30;73331;48.168;20.776;2023-11-19T09:26:41;2.13;81.29
83405;SHT30;73331;48.168;20.776;2023-11-19T09:28:12;2.17;81.43
83405;SHT30;73331;48.168;20.776;2023-11-19T09:29:45;2.32;80.94
83405;SHT30;73331;48.168;20.776;2023-11-19T09:31:17;2.34;80.63
83405;SHT30;73331;48.168;20.776;2023-11-19T09:32:48;2.46;80.49
83405;SHT30;73331;48.168;20.776;2023-11-19T09:34:19;2.58;80.50